Time;durP1;ratioP1;P1;durP2;ratioP2;P2;SDS_P1;SDS_P2;PMS_P1;PMS_P2;Temp;Humidity;BMP_temperature;BMP_pressure;BME280_temperature;BME280_humidity;BME280_pressure;Samples;Min_cycle;Max_cycle;Signal;HPM_P1;HPM_P2
2022/02/21 00:01:14;;;;;;;15.57;3.30;;;6.10;99.90;;;;;;4970885;28;20038;-42
2022/02/21 00:03:40;;;;;;;20.00;2.95;;;6.00;99.90;;;;;;4974285;28;20023;-42
2022/02/21 00:06:05;;;;;;;14.23;2.60;;;6.00;99.90;;;;;;4971214;28;20028;-42
2022/02/21 00:08:31;;;;;;;14.35;2.60;;;5.90;99.90;;;;;;4974021;28;20027;-43
2022/02/21 00:10:57;;;;;;;20.05;3.45;;;5.90;99.90;;;;;;4956127;28;20027;-42
2022/02/21 00:13:22;;;;;;;19.92;3.70;;;5.90;99.90;;;;;;4976068;28;20070;-43
2022/02/21 00:15:48;;;;;;;20.55;3.25;;;5.90;99.90;;;;;;4975266;28;20038;-42
2022/02/21 00:18:13;;;;;;;23.13;3.63;;;5.80;99.90;;;;;;4972667;28;20027;-43
2022/02/21 00:20:39;;;;;;;20.20;3.67;;;5.90;99.90;;;;;;4976948;28;20023;-43
2022/02/21 00:23:07;;;;;;;23.38;3.92;;;5.90;99.90;;;;;;4979868;28;20058;-43
2022/02/21 00:25:33;;;;;;;19.73;3.33;;;5.90;99.90;;;;;;4936524;29;20068;-43
2022/02/21 00:27:59;;;;;;;16.05;3.35;;;5.90;99.90;;;;;;4936237;29;20138;-43
2022/02/21 00:30:24;;;;;;;21.10;4.28;;;5.90;99.90;;;;;;4935107;29;20453;-43
2022/02/21 00:32:51;;;;;;;28.67;4.22;;;6.00;99.90;;;;;;4933238;29;20554;-44
2022/02/21 00:35:16;;;;;;;19.33;3.60;;;6.00;99.90;;;;;;4932229;29;20056;-43
2022/02/21 00:37:42;;;;;;;18.75;2.80;;;5.90;99.90;;;;;;4939403;28;20024;-44
2022/02/21 00:40:08;;;;;;;15.50;2.88;;;6.00;99.90;;;;;;4938799;29;20388;-44
2022/02/21 00:42:34;;;;;;;17.40;2.90;;;6.00;99.90;;;;;;4932564;29;20028;-44
2022/02/21 00:45:00;;;;;;;12.55;2.55;;;5.90;99.90;;;;;;4937902;29;20046;-43
2022/02/21 00:47:27;;;;;;;13.68;2.78;;;5.90;99.90;;;;;;4934991;29;20044;-45
2022/02/21 00:49:54;;;;;;;16.90;3.08;;;5.90;99.90;;;;;;4939384;29;20035;-43
2022/02/21 00:52:20;;;;;;;20.15;3.30;;;5.90;99.90;;;;;;4933033;29;20452;-44
2022/02/21 00:54:46;;;;;;;19.95;3.47;;;5.90;99.90;;;;;;4933210;29;20150;-44
2022/02/21 00:57:12;;;;;;;21.38;3.22;;;5.80;99.90;;;;;;4939870;29;20076;-46
2022/02/21 00:59:38;;;;;;;17.23;3.58;;;5.80;99.90;;;;;;4938261;29;20032;-44
2022/02/21 01:02:04;;;;;;;20.73;3.97;;;5.70;99.90;;;;;;4936831;29;20059;-45
2022/02/21 01:04:29;;;;;;;16.58;2.95;;;5.60;99.90;;;;;;4931170;29;20062;-43
2022/02/21 01:06:55;;;;;;;19.88;3.75;;;5.70;99.90;;;;;;4932915;29;20424;-46
2022/02/21 01:09:22;;;;;;;21.63;3.55;;;5.70;99.90;;;;;;4934773;29;20023;-44
2022/02/21 01:11:47;;;;;;;20.27;3.25;;;5.70;99.90;;;;;;4936449;29;20032;-43
2022/02/21 01:14:13;;;;;;;18.33;3.17;;;5.70;99.90;;;;;;4932479;29;20035;-45
2022/02/21 01:16:39;;;;;;;18.80;3.00;;;5.70;99.90;;;;;;4939671;29;20055;-43
2022/02/21 01:19:05;;;;;;;18.60;3.95;;;5.70;99.90;;;;;;4935165;29;20331;-43
2022/02/21 01:21:32;;;;;;;20.02;3.53;;;5.70;99.90;;;;;;4937583;29;20055;-43
2022/02/21 01:23:58;;;;;;;16.75;3.35;;;5.70;99.90;;;;;;4950608;28;20042;-42
2022/02/21 01:26:24;;;;;;;15.10;3.53;;;5.60;99.90;;;;;;4976073;28;20042;-43
2022/02/21 01:28:50;;;;;;;24.67;4.55;;;5.60;99.90;;;;;;4976721;28;20030;-42
2022/02/21 01:31:16;;;;;;;23.17;4.47;;;5.60;99.90;;;;;;4972045;28;20038;-43
2022/02/21 01:33:41;;;;;;;20.45;4.22;;;5.60;99.90;;;;;;4977337;28;20046;-43
2022/02/21 01:36:07;;;;;;;18.02;4.22;;;5.50;99.90;;;;;;4970294;28;20382;-42
2022/02/21 01:38:33;;;;;;;18.25;4.40;;;5.50;99.90;;;;;;4971425;28;20519;-42
2022/02/21 01:40:58;;;;;;;17.05;4.20;;;5.50;99.90;;;;;;4973051;28;20026;-45
2022/02/21 01:43:24;;;;;;;17.95;3.95;;;5.40;99.90;;;;;;4968688;28;20050;-42
2022/02/21 01:45:50;;;;;;;25.55;4.40;;;5.50;99.90;;;;;;4969411;28;20019;-43
2022/02/21 01:48:15;;;;;;;26.52;4.88;;;5.50;99.90;;;;;;4976347;28;20487;-42
2022/02/21 01:50:43;;;;;;;22.40;4.32;;;5.50;99.90;;;;;;4975236;28;20034;-43
2022/02/21 01:53:09;;;;;;;23.63;4.57;;;5.50;99.90;;;;;;4970925;28;20054;-43
2022/02/21 01:55:37;;;;;;;22.65;4.03;;;5.50;99.90;;;;;;4970905;28;20137;-42
2022/02/21 01:58:05;;;;;;;22.83;4.28;;;5.60;99.90;;;;;;4972553;28;20027;-42
2022/02/21 02:00:30;;;;;;;17.98;4.20;;;5.60;99.90;;;;;;4970006;28;20019;-42
2022/02/21 02:02:56;;;;;;;26.15;4.25;;;5.50;99.90;;;;;;4958807;28;20057;-46
2022/02/21 02:05:23;;;;;;;22.02;4.50;;;5.50;99.90;;;;;;4970086;28;20162;-47
2022/02/21 02:07:49;;;;;;;24.13;4.28;;;5.60;99.90;;;;;;4974879;28;20405;-42
2022/02/21 02:10:15;;;;;;;27.50;4.38;;;5.50;99.90;;;;;;4972728;28;20027;-42
2022/02/21 02:12:41;;;;;;;17.15;3.70;;;5.50;99.90;;;;;;4975293;28;20062;-42
2022/02/21 02:15:12;;;;;;;21.10;3.85;;;5.50;99.90;;;;;;4978087;28;20034;-41
2022/02/21 02:17:37;;;;;;;26.83;4.07;;;5.40;99.90;;;;;;4971918;28;20035;-43
2022/02/21 02:20:04;;;;;;;22.95;4.40;;;5.40;99.90;;;;;;4975336;28;20045;-42
2022/02/21 02:22:29;;;;;;;25.30;4.15;;;5.30;99.90;;;;;;4970547;28;20035;-41
2022/02/21 02:24:55;;;;;;;21.00;4.38;;;5.30;99.90;;;;;;4953848;28;20051;-41
2022/02/21 02:27:22;;;;;;;18.50;3.70;;;5.20;99.90;;;;;;4968124;28;20047;-43
2022/02/21 02:29:50;;;;;;;23.20;4.32;;;5.20;99.90;;;;;;4967425;28;20047;-42
2022/02/21 02:32:16;;;;;;;22.17;3.65;;;5.20;99.90;;;;;;4973161;28;20039;-41
2022/02/21 02:34:43;;;;;;;22.10;4.07;;;5.20;99.90;;;;;;4975844;28;20038;-46
2022/02/21 02:37:09;;;;;;;21.17;3.67;;;5.20;99.90;;;;;;4978197;28;20051;-42
2022/02/21 02:39:36;;;;;;;16.30;3.55;;;5.20;99.90;;;;;;4978744;28;20249;-42
2022/02/21 02:42:01;;;;;;;18.67;4.00;;;5.20;99.90;;;;;;4980594;28;20031;-41
2022/02/21 02:44:27;;;;;;;22.00;3.40;;;5.10;99.90;;;;;;4957409;28;20529;-43
2022/02/21 02:46:53;;;;;;;17.40;3.00;;;5.10;99.90;;;;;;4976937;28;20047;-47
2022/02/21 02:49:19;;;;;;;20.63;3.65;;;5.10;99.90;;;;;;4961456;28;20062;-43
2022/02/21 02:51:44;;;;;;;15.30;3.50;;;5.00;99.90;;;;;;4981376;28;20042;-41
2022/02/21 02:54:11;;;;;;;18.60;4.18;;;5.00;99.90;;;;;;4979276;28;20038;-42
2022/02/21 02:56:41;;;;;;;20.05;3.88;;;5.10;99.90;;;;;;4981093;28;20023;-43
2022/02/21 02:59:07;;;;;;;22.33;3.83;;;5.10;99.90;;;;;;4979676;28;20019;-41
2022/02/21 03:01:33;;;;;;;18.58;3.28;;;5.10;99.90;;;;;;4975000;28;20434;-41
2022/02/21 03:03:59;;;;;;;21.98;3.20;;;5.00;99.90;;;;;;4978393;28;20586;-41
2022/02/21 03:06:24;;;;;;;18.17;3.45;;;4.90;99.90;;;;;;4977444;28;20031;-41
2022/02/21 03:08:50;;;;;;;18.45;3.13;;;4.80;99.90;;;;;;4977163;28;20041;-41
2022/02/21 03:11:16;;;;;;;15.35;3.25;;;4.70;99.90;;;;;;4979717;28;20514;-43
2022/02/21 03:13:42;;;;;;;16.85;3.75;;;4.40;99.90;;;;;;4973072;28;20034;-41
2022/02/21 03:16:08;;;;;;;14.43;3.17;;;4.20;99.90;;;;;;4977448;28;20019;-41
2022/02/21 03:18:34;;;;;;;14.88;3.13;;;4.10;99.90;;;;;;4972275;28;20031;-41
2022/02/21 03:20:59;;;;;;;17.58;4.10;;;4.00;99.90;;;;;;4976912;28;20019;-41
2022/02/21 03:23:25;;;;;;;17.80;3.42;;;4.00;99.90;;;;;;4976203;28;20085;-40
2022/02/21 03:25:51;;;;;;;23.92;4.00;;;4.00;99.90;;;;;;4975445;28;20071;-41
2022/02/21 03:28:17;;;;;;;20.15;4.40;;;3.90;99.90;;;;;;4979668;28;20090;-41
2022/02/21 03:30:44;;;;;;;21.58;3.92;;;3.90;99.90;;;;;;4973796;28;20027;-42
2022/02/21 03:33:10;;;;;;;23.92;3.92;;;3.90;99.90;;;;;;4975026;28;20054;-43
2022/02/21 03:35:36;;;;;;;22.98;4.00;;;4.00;99.90;;;;;;4968181;28;20106;-44
2022/02/21 03:38:02;;;;;;;25.50;5.00;;;4.00;99.90;;;;;;4963799;28;20042;-47
2022/02/21 03:40:29;;;;;;;30.58;4.65;;;4.10;99.90;;;;;;4977851;28;20034;-45
2022/02/21 03:42:55;;;;;;;21.20;4.72;;;4.20;99.90;;;;;;4973648;28;20036;-44
2022/02/21 03:45:22;;;;;;;15.93;3.55;;;4.10;99.90;;;;;;4971806;28;20042;-45
2022/02/21 03:47:48;;;;;;;23.67;3.80;;;4.10;99.90;;;;;;4979499;28;20041;-43
2022/02/21 03:50:14;;;;;;;23.85;4.03;;;4.10;99.90;;;;;;4977006;28;20027;-42
2022/02/21 03:52:39;;;;;;;13.02;3.22;;;4.20;99.90;;;;;;4971773;28;20043;-43
2022/02/21 03:55:06;;;;;;;18.83;3.60;;;4.30;99.90;;;;;;4976879;28;20030;-42
2022/02/21 03:57:31;;;;;;;14.63;3.05;;;4.30;99.90;;;;;;4978683;28;20042;-45
2022/02/21 03:59:57;;;;;;;21.83;3.65;;;4.40;99.90;;;;;;4972125;28;20051;-43
2022/02/21 04:02:22;;;;;;;20.10;4.00;;;4.30;99.90;;;;;;4976711;28;20039;-41
2022/02/21 04:04:48;;;;;;;19.13;3.65;;;4.40;99.90;;;;;;4973758;28;20112;-42
2022/02/21 04:07:14;;;;;;;21.90;4.32;;;4.40;99.90;;;;;;4975547;28;20833;-42
2022/02/21 04:09:40;;;;;;;22.70;4.00;;;4.40;99.90;;;;;;4975672;28;20035;-43
2022/02/21 04:12:07;;;;;;;20.15;4.07;;;4.50;99.90;;;;;;4971559;28;20023;-42
2022/02/21 04:14:33;;;;;;;20.33;3.78;;;4.50;99.90;;;;;;4979402;28;20097;-41
2022/02/21 04:16:59;;;;;;;19.63;4.85;;;4.30;99.90;;;;;;4978919;28;20027;-41
2022/02/21 04:19:25;;;;;;;24.55;4.93;;;4.10;99.90;;;;;;4973076;28;20626;-41
2022/02/21 04:21:51;;;;;;;17.50;3.58;;;4.10;99.90;;;;;;4974739;28;20045;-41
2022/02/21 04:24:17;;;;;;;18.83;3.40;;;4.00;99.90;;;;;;4979635;28;20038;-41
2022/02/21 04:26:43;;;;;;;20.83;3.58;;;4.00;99.90;;;;;;4970141;28;20066;-41
2022/02/21 04:29:08;;;;;;;19.38;3.83;;;4.10;99.90;;;;;;4976515;28;20027;-41
2022/02/21 04:31:34;;;;;;;19.70;3.25;;;4.10;99.90;;;;;;4968671;28;20077;-41
2022/02/21 04:34:00;;;;;;;18.70;3.80;;;4.10;99.90;;;;;;4973514;28;20018;-41
2022/02/21 04:36:25;;;;;;;17.00;3.70;;;4.10;99.90;;;;;;4978486;28;20031;-42
2022/02/21 04:38:51;;;;;;;23.90;3.35;;;4.20;99.90;;;;;;4977476;28;20034;-42
2022/02/21 04:41:17;;;;;;;19.67;4.28;;;4.20;99.90;;;;;;4979782;28;20459;-42
2022/02/21 04:43:43;;;;;;;17.70;3.30;;;4.20;99.90;;;;;;4966887;28;20034;-44
2022/02/21 04:46:09;;;;;;;23.30;3.50;;;4.20;99.90;;;;;;4970861;28;20027;-42
2022/02/21 04:48:35;;;;;;;25.83;3.78;;;4.20;99.90;;;;;;4973013;28;20444;-45
2022/02/21 04:51:01;;;;;;;21.05;3.90;;;4.30;99.90;;;;;;4974567;28;20030;-44
2022/02/21 04:53:27;;;;;;;16.35;3.17;;;4.30;99.90;;;;;;4971508;28;20027;-42
2022/02/21 04:55:53;;;;;;;16.40;3.63;;;4.40;99.90;;;;;;4974459;28;20032;-42
2022/02/21 04:58:19;;;;;;;15.35;4.05;;;4.40;99.90;;;;;;4961947;28;20050;-43
2022/02/21 05:00:44;;;;;;;26.55;4.45;;;4.40;99.90;;;;;;4969010;28;20031;-43
2022/02/21 05:03:10;;;;;;;16.02;3.28;;;4.50;99.90;;;;;;4981333;28;20038;-43
2022/02/21 05:05:35;;;;;;;18.30;3.60;;;4.40;99.90;;;;;;4971385;28;20420;-43
2022/02/21 05:08:01;;;;;;;16.48;3.38;;;4.50;99.90;;;;;;4976510;28;20062;-46
2022/02/21 05:10:28;;;;;;;20.35;3.70;;;4.50;99.90;;;;;;4972274;28;20019;-42
2022/02/21 05:12:54;;;;;;;13.13;2.35;;;4.50;99.90;;;;;;4972221;28;20035;-42
2022/02/21 05:15:20;;;;;;;13.88;3.03;;;4.60;99.90;;;;;;4974065;28;20062;-42
2022/02/21 05:17:46;;;;;;;21.65;3.47;;;4.60;99.90;;;;;;4969960;28;20039;-43
2022/02/21 05:20:12;;;;;;;16.67;2.80;;;4.70;99.90;;;;;;4977070;28;20392;-43
2022/02/21 05:22:38;;;;;;;16.52;3.88;;;4.60;99.90;;;;;;4977134;28;20037;-43
2022/02/21 05:25:05;;;;;;;16.48;3.42;;;4.60;99.90;;;;;;4979244;28;20054;-42
2022/02/21 05:27:36;;;;;;;18.73;3.47;;;4.60;99.90;;;;;;4979778;28;20039;-43
2022/02/21 05:30:04;;;;;;;16.70;3.40;;;4.70;99.90;;;;;;4980265;28;20030;-42
2022/02/21 05:32:30;;;;;;;19.63;3.45;;;4.70;99.90;;;;;;4977854;28;20050;-43
2022/02/21 05:34:55;;;;;;;19.27;3.67;;;4.70;99.90;;;;;;4980849;28;20096;-42
2022/02/21 05:37:21;;;;;;;22.33;3.70;;;4.70;99.90;;;;;;4982252;28;20376;-43
2022/02/21 05:39:47;;;;;;;16.30;3.33;;;4.70;99.90;;;;;;4978502;28;20037;-43
2022/02/21 05:42:14;;;;;;;16.35;3.00;;;4.70;99.90;;;;;;4978493;28;20023;-42
2022/02/21 05:44:40;;;;;;;21.95;3.97;;;4.70;99.90;;;;;;4977469;28;20546;-42
2022/02/21 05:47:06;;;;;;;23.10;3.63;;;4.70;99.90;;;;;;4972771;28;20054;-42
2022/02/21 05:49:32;;;;;;;17.13;3.53;;;4.70;99.90;;;;;;4977001;28;20541;-46
2022/02/21 05:51:58;;;;;;;16.20;3.20;;;4.70;99.90;;;;;;4970179;28;20082;-44
2022/02/21 05:54:24;;;;;;;16.23;3.92;;;4.70;99.90;;;;;;4972569;28;20078;-41
2022/02/21 05:56:49;;;;;;;17.83;3.88;;;4.70;99.90;;;;;;4978259;28;20027;-41
2022/02/21 05:59:15;;;;;;;17.83;3.10;;;4.70;99.90;;;;;;4975881;28;20035;-41
2022/02/21 06:01:41;;;;;;;18.38;3.38;;;4.70;99.90;;;;;;4977827;28;20034;-41
2022/02/21 06:04:08;;;;;;;19.20;3.45;;;4.70;99.90;;;;;;4981336;28;20192;-42
2022/02/21 06:06:34;;;;;;;16.33;3.47;;;4.70;99.90;;;;;;4979301;28;20038;-41
2022/02/21 06:09:00;;;;;;;15.98;3.28;;;4.70;99.90;;;;;;4979291;28;20093;-44
2022/02/21 06:11:25;;;;;;;16.92;3.40;;;4.70;99.90;;;;;;4978399;28;20019;-42
2022/02/21 06:13:51;;;;;;;18.80;3.55;;;4.80;99.90;;;;;;4981039;28;20323;-41
2022/02/21 06:16:17;;;;;;;19.38;4.63;;;4.80;99.90;;;;;;4978658;28;20038;-42
2022/02/21 06:18:42;;;;;;;19.40;4.38;;;4.80;99.90;;;;;;4977523;28;20133;-41
2022/02/21 06:21:08;;;;;;;18.00;3.50;;;4.80;99.90;;;;;;4975966;28;20084;-41
2022/02/21 06:23:34;;;;;;;16.63;3.20;;;4.80;99.90;;;;;;4976339;28;20047;-41
2022/02/21 06:25:59;;;;;;;16.73;3.58;;;4.80;99.90;;;;;;4972568;28;20168;-40
2022/02/21 06:28:25;;;;;;;21.05;4.10;;;4.80;99.90;;;;;;4975096;28;20042;-42
2022/02/21 06:30:51;;;;;;;16.65;3.50;;;4.80;99.90;;;;;;4972886;28;20062;-41
2022/02/21 06:33:18;;;;;;;17.00;4.00;;;4.80;99.90;;;;;;4973755;28;20453;-42
2022/02/21 06:35:43;;;;;;;16.90;3.58;;;4.80;99.90;;;;;;4969157;28;20046;-41
2022/02/21 06:38:09;;;;;;;24.55;4.82;;;4.80;99.90;;;;;;4975570;28;20080;-43
2022/02/21 06:40:35;;;;;;;15.50;3.60;;;4.80;99.90;;;;;;4957670;28;20134;-43
2022/02/21 06:43:01;;;;;;;20.05;3.22;;;4.80;99.90;;;;;;4974000;28;20081;-41
2022/02/21 06:45:28;;;;;;;21.00;3.92;;;4.80;99.90;;;;;;4974065;28;20046;-41
2022/02/21 06:47:54;;;;;;;17.67;3.80;;;4.80;99.90;;;;;;4970808;28;20050;-41
2022/02/21 06:50:20;;;;;;;24.70;3.90;;;4.80;99.90;;;;;;4971597;28;20038;-42
2022/02/21 06:52:46;;;;;;;17.15;2.95;;;4.80;99.90;;;;;;4970987;28;20031;-41
2022/02/21 06:55:13;;;;;;;23.55;4.35;;;4.80;99.90;;;;;;4974182;28;20027;-42
2022/02/21 06:57:40;;;;;;;28.02;4.50;;;4.80;99.90;;;;;;4974299;28;20058;-41
2022/02/21 07:00:07;;;;;;;17.45;3.40;;;4.80;99.90;;;;;;4971899;28;20031;-41
2022/02/21 07:02:32;;;;;;;15.65;3.22;;;4.80;99.90;;;;;;4976837;28;20027;-41
2022/02/21 07:04:59;;;;;;;19.92;3.88;;;4.90;99.90;;;;;;4971314;28;20054;-44
2022/02/21 07:07:25;;;;;;;16.42;3.25;;;4.90;99.90;;;;;;4972878;28;20051;-41
2022/02/21 07:09:50;;;;;;;21.80;4.05;;;4.80;99.90;;;;;;4967290;28;20023;-40
2022/02/21 07:12:20;;;;;;;20.02;3.55;;;4.80;99.90;;;;;;4975261;28;20386;-41
2022/02/21 07:14:47;;;;;;;26.50;4.45;;;4.90;99.90;;;;;;4972544;28;20460;-40
2022/02/21 07:17:13;;;;;;;14.98;3.20;;;4.90;99.90;;;;;;4978899;28;20034;-40
2022/02/21 07:19:38;;;;;;;18.15;4.18;;;4.90;99.90;;;;;;4963335;28;20042;-41
2022/02/21 07:22:04;;;;;;;21.15;3.58;;;5.00;99.90;;;;;;4972572;28;20027;-42
2022/02/21 07:24:31;;;;;;;22.58;4.05;;;4.90;99.90;;;;;;4972178;28;20463;-41
2022/02/21 07:26:57;;;;;;;24.83;4.28;;;5.00;99.90;;;;;;4968180;28;20039;-40
2022/02/21 07:29:23;;;;;;;21.80;4.03;;;5.00;99.90;;;;;;4973149;28;20078;-41
2022/02/21 07:31:50;;;;;;;28.58;5.22;;;5.00;99.90;;;;;;4968684;28;20114;-40
2022/02/21 07:34:16;;;;;;;24.48;4.05;;;5.00;99.90;;;;;;4975105;28;20466;-41
2022/02/21 07:36:42;;;;;;;26.15;4.32;;;5.00;99.90;;;;;;4970170;28;20103;-42
2022/02/21 07:39:07;;;;;;;22.65;4.50;;;5.00;99.90;;;;;;4981896;28;20058;-41
2022/02/21 07:41:33;;;;;;;30.95;5.05;;;5.10;99.90;;;;;;4984059;28;20110;-40
2022/02/21 07:43:59;;;;;;;19.70;3.72;;;5.10;99.90;;;;;;4983239;28;20127;-43
2022/02/21 07:46:26;;;;;;;22.00;4.07;;;5.20;99.90;;;;;;4980179;28;20091;-41
2022/02/21 07:48:52;;;;;;;27.02;4.43;;;5.10;99.90;;;;;;4976020;28;20030;-40
2022/02/21 07:51:19;;;;;;;26.17;4.18;;;5.10;99.90;;;;;;4983735;28;20046;-40
2022/02/21 07:53:45;;;;;;;20.20;3.38;;;5.20;99.90;;;;;;4981659;28;20094;-43
2022/02/21 07:56:11;;;;;;;26.92;5.40;;;5.20;99.90;;;;;;4982469;28;20031;-40
2022/02/21 07:58:37;;;;;;;24.83;4.10;;;5.20;99.90;;;;;;4984001;28;20035;-46
2022/02/21 08:01:02;;;;;;;28.55;4.80;;;5.20;99.90;;;;;;4970972;28;20487;-44
2022/02/21 08:03:28;;;;;;;21.95;4.32;;;5.30;99.90;;;;;;4986924;28;20069;-41
2022/02/21 08:05:55;;;;;;;29.25;4.57;;;5.20;99.90;;;;;;4980056;28;20050;-41
2022/02/21 08:08:21;;;;;;;21.25;4.28;;;5.20;99.90;;;;;;4974136;28;20466;-41
2022/02/21 08:10:47;;;;;;;25.63;4.47;;;5.20;99.90;;;;;;4972292;28;20035;-41
2022/02/21 08:13:12;;;;;;;20.65;3.85;;;5.20;99.90;;;;;;4972321;28;20398;-42
2022/02/21 08:15:38;;;;;;;19.40;4.25;;;5.20;99.90;;;;;;4977061;28;20027;-41
2022/02/21 08:18:04;;;;;;;19.98;3.97;;;5.30;99.90;;;;;;4977125;28;20090;-42
2022/02/21 08:20:29;;;;;;;20.58;3.33;;;5.20;99.90;;;;;;4982491;28;20030;-42
2022/02/21 08:22:56;;;;;;;17.33;4.07;;;5.20;99.90;;;;;;4982854;28;20550;-40
2022/02/21 08:25:22;;;;;;;18.15;3.55;;;5.20;99.90;;;;;;4984985;28;20054;-39
2022/02/21 08:27:48;;;;;;;17.85;3.80;;;5.10;99.90;;;;;;4985217;28;20063;-39
2022/02/21 08:30:20;;;;;;;23.23;4.38;;;5.10;99.90;;;;;;4984601;28;20031;-40
2022/02/21 08:32:46;;;;;;;26.05;3.78;;;5.00;99.90;;;;;;4968003;28;20037;-44
2022/02/21 08:35:12;;;;;;;19.40;3.67;;;4.90;99.90;;;;;;4983626;28;20031;-40
2022/02/21 08:37:39;;;;;;;27.13;3.90;;;4.90;99.90;;;;;;4985637;28;20100;-40
2022/02/21 08:40:06;;;;;;;17.48;3.58;;;4.80;99.90;;;;;;4983901;28;20384;-41
2022/02/21 08:42:32;;;;;;;20.23;4.30;;;4.70;99.90;;;;;;4985401;28;20034;-44
2022/02/21 08:44:59;;;;;;;21.95;4.30;;;4.60;99.90;;;;;;4984085;28;20038;-40
2022/02/21 08:47:25;;;;;;;24.55;4.32;;;4.50;99.90;;;;;;4982979;28;20026;-39
2022/02/21 08:49:51;;;;;;;15.25;3.60;;;4.40;99.90;;;;;;4985344;28;20030;-39
2022/02/21 08:52:17;;;;;;;13.10;2.42;;;4.30;99.90;;;;;;4982854;28;20501;-40
2022/02/21 08:54:43;;;;;;;22.25;2.92;;;4.20;99.90;;;;;;4984388;28;20486;-40
2022/02/21 08:57:09;;;;;;;23.23;4.35;;;4.00;99.90;;;;;;4983249;28;20031;-39
2022/02/21 08:59:35;;;;;;;14.05;2.92;;;4.00;99.90;;;;;;4984876;28;20109;-39
2022/02/21 09:02:01;;;;;;;18.25;3.00;;;4.00;99.90;;;;;;4984558;28;20034;-38
2022/02/21 09:04:27;;;;;;;12.57;2.72;;;3.90;99.90;;;;;;4982946;28;20026;-40
2022/02/21 09:06:52;;;;;;;18.60;2.67;;;3.90;99.90;;;;;;4985117;28;20039;-40
2022/02/21 09:09:18;;;;;;;10.13;2.30;;;3.80;99.90;;;;;;4983019;28;20029;-39
2022/02/21 09:11:45;;;;;;;8.55;2.03;;;3.70;99.90;;;;;;4967567;28;20050;-39
2022/02/21 09:14:11;;;;;;;10.50;2.72;;;3.50;99.90;;;;;;4982474;28;20079;-39
2022/02/21 09:16:37;;;;;;;9.68;2.78;;;3.30;99.90;;;;;;4966692;28;20050;-40
2022/02/21 09:19:03;;;;;;;10.98;2.22;;;3.20;99.90;;;;;;4984064;28;20030;-39
2022/02/21 09:21:29;;;;;;;9.27;2.03;;;3.20;99.90;;;;;;4983190;28;20418;-40
2022/02/21 09:23:55;;;;;;;9.82;2.30;;;3.10;99.90;;;;;;4984901;28;20046;-39
2022/02/21 09:26:20;;;;;;;9.68;2.42;;;3.00;99.90;;;;;;4981790;28;20046;-40
2022/02/21 09:28:47;;;;;;;8.05;1.98;;;3.00;99.90;;;;;;4984784;28;20086;-41
2022/02/21 09:31:13;;;;;;;7.10;1.65;;;3.00;99.90;;;;;;4982571;28;20027;-40
2022/02/21 09:33:38;;;;;;;9.57;2.03;;;2.90;99.90;;;;;;4984693;28;20038;-40
2022/02/21 09:36:04;;;;;;;9.98;1.48;;;2.90;99.90;;;;;;4981187;28;20160;-40
2022/02/21 09:38:30;;;;;;;7.90;1.45;;;2.90;99.90;;;;;;4983743;28;20023;-44
2022/02/21 09:40:56;;;;;;;7.22;1.80;;;2.80;99.90;;;;;;4984312;28;20031;-41
2022/02/21 09:43:25;;;;;;;7.30;1.38;;;2.70;99.90;;;;;;4982576;28;20026;-40
2022/02/21 09:45:56;;;;;;;9.25;1.80;;;2.70;99.90;;;;;;4983546;28;20034;-40
2022/02/21 09:48:24;;;;;;;12.80;2.10;;;2.60;99.90;;;;;;4981588;28;20042;-41
2022/02/21 09:50:50;;;;;;;13.07;1.88;;;2.70;99.90;;;;;;4983843;28;20026;-40
2022/02/21 09:53:16;;;;;;;10.65;2.35;;;2.70;99.90;;;;;;4983344;28;20469;-40
2022/02/21 09:55:43;;;;;;;13.57;2.33;;;2.80;99.90;;;;;;4983159;28;20027;-45
2022/02/21 09:58:09;;;;;;;9.77;1.90;;;2.80;99.90;;;;;;4983765;28;20030;-40
2022/02/21 10:00:35;;;;;;;7.40;1.42;;;2.80;99.90;;;;;;4981385;28;20035;-39
2022/02/21 10:03:02;;;;;;;8.30;1.85;;;2.80;99.90;;;;;;4983742;28;20019;-40
2022/02/21 10:05:30;;;;;;;8.90;2.20;;;2.80;99.90;;;;;;4981880;28;20035;-41
2022/02/21 10:07:56;;;;;;;9.55;1.88;;;2.80;99.90;;;;;;4983563;28;20138;-41
2022/02/21 10:10:25;;;;;;;8.23;1.80;;;2.80;99.90;;;;;;4982374;28;20027;-40
2022/02/21 10:12:57;;;;;;;7.50;1.83;;;2.80;99.90;;;;;;4946506;29;20027;-40
2022/02/21 10:15:26;;;;;;;7.07;1.50;;;2.80;99.90;;;;;;4964805;29;20027;-41
2022/02/21 10:18:08;;;;;;;7.05;1.60;;;2.70;99.90;;;;;;4976344;28;20114;-41
2022/02/21 10:20:52;;;;;;;9.55;1.80;;;2.80;99.90;;;;;;4983469;28;20027;-41
2022/02/21 10:23:18;;;;;;;6.38;1.63;;;2.80;99.90;;;;;;4982862;28;20015;-39
2022/02/21 10:25:58;;;;;;;10.02;1.77;;;2.80;99.90;;;;;;4982523;28;20534;-39
2022/02/21 10:28:30;;;;;;;5.22;1.25;;;2.70;99.90;;;;;;4983564;28;20042;-39
2022/02/21 10:31:12;;;;;;;5.65;1.60;;;2.60;99.90;;;;;;4977176;28;20038;-39
2022/02/21 10:33:38;;;;;;;;;;;2.50;99.90;;;;;;4964911;29;20043;-40
2022/02/21 10:36:25;;;;;;;5.45;1.77;;;2.50;99.90;;;;;;4963216;29;19911;-39
2022/02/21 10:38:54;;;;;;;7.93;1.70;;;2.50;99.90;;;;;;4977337;28;20086;-39
2022/02/21 10:41:22;;;;;;;5.80;1.90;;;2.60;99.90;;;;;;4983425;28;20027;-41
2022/02/21 10:43:48;;;;;;;7.55;1.80;;;2.60;99.90;;;;;;4981691;28;20027;-42
2022/02/21 10:46:14;;;;;;;6.53;1.80;;;2.60;99.90;;;;;;4983989;28;20030;-39
2022/02/21 10:48:44;;;;;;;6.70;1.73;;;2.50;99.90;;;;;;4964060;28;20075;-43
2022/02/21 10:51:10;;;;;;;5.75;1.50;;;2.40;99.90;;;;;;4982625;28;20522;-40
2022/02/21 10:53:42;;;;;;;8.73;1.73;;;2.30;99.90;;;;;;4982329;28;20035;-38
2022/02/21 10:56:09;;;;;;;8.00;1.70;;;2.20;99.90;;;;;;4981762;28;20038;-39
2022/02/21 10:58:35;;;;;;;8.60;1.75;;;2.20;99.90;;;;;;4983009;28;20047;-39
2022/02/21 11:01:01;;;;;;;6.53;1.73;;;2.30;99.90;;;;;;4981484;28;20054;-39
2022/02/21 11:03:28;;;;;;;7.22;2.05;;;2.40;99.90;;;;;;4982022;28;20051;-41
2022/02/21 11:05:56;;;;;;;7.55;2.15;;;2.50;99.90;;;;;;4970636;28;20050;-40
2022/02/21 11:08:22;;;;;;;6.43;1.60;;;2.70;99.90;;;;;;4954437;28;20065;-40
2022/02/21 11:10:59;;;;;;;8.60;2.17;;;2.90;99.90;;;;;;4977528;28;20035;-40
2022/02/21 11:13:28;;;;;;;12.52;2.38;;;3.00;99.90;;;;;;4976978;28;20034;-42
2022/02/21 11:15:54;;;;;;;13.18;2.50;;;3.10;99.90;;;;;;4968133;28;20047;-40
2022/02/21 11:18:21;;;;;;;11.52;2.70;;;3.30;99.90;;;;;;4978978;28;20102;-39
2022/02/21 11:20:47;;;;;;;10.65;2.30;;;3.40;99.90;;;;;;4971181;28;20019;-40
2022/02/21 11:23:13;;;;;;;10.25;2.72;;;3.50;99.90;;;;;;4971757;28;20035;-40
2022/02/21 11:25:54;;;;;;;14.95;2.92;;;3.60;99.90;;;;;;4971205;28;20668;-40
2022/02/21 11:28:57;;;;;;;17.02;3.33;;;3.70;99.90;;;;;;4980694;28;20047;-46
2022/02/21 11:31:30;;;;;;;18.73;3.75;;;3.90;99.90;;;;;;4946435;28;20046;-46
2022/02/21 11:34:06;;;;;;;11.82;3.67;;;4.00;99.90;;;;;;4976439;28;20043;-43
2022/02/21 11:36:34;;;;;;;14.88;3.95;;;4.10;99.90;;;;;;4984300;28;20073;-41
2022/02/21 11:39:20;;;;;;;19.98;3.95;;;4.20;99.90;;;;;;4979987;28;20193;-43
2022/02/21 11:41:45;;;;;;;16.67;3.45;;;4.40;99.90;;;;;;4965103;28;20105;-41
2022/02/21 11:44:20;;;;;;;19.55;4.18;;;4.50;99.90;;;;;;4962096;28;20069;-41
2022/02/21 11:46:49;;;;;;;18.15;3.85;;;4.50;99.90;;;;;;4984095;28;20073;-40
2022/02/21 11:49:28;;;;;;;21.70;4.22;;;4.60;99.90;;;;;;5023848;23;20058;-88
2022/02/21 13:06:24;;;;;;;31.35;5.45;;;7.10;99.90;;;;;;4987498;28;20657;-82
2022/02/21 13:08:59;;;;;;;35.33;5.80;;;7.00;99.90;;;;;;4977958;28;20046;-82
2022/02/21 13:11:46;;;;;;;24.88;5.05;;;7.00;99.90;;;;;;4991736;28;20035;-82
2022/02/21 13:14:36;;;;;;;29.08;4.82;;;7.10;99.90;;;;;;4995373;28;20042;-82
2022/02/21 13:17:32;;;;;;;29.08;4.78;;;7.20;99.90;;;;;;4963147;28;20042;-83
2022/02/21 13:20:41;;;;;;;30.23;4.68;;;7.40;99.90;;;;;;4980092;28;20046;-83
2022/02/21 13:27:38;;;;;;;22.58;4.38;;;7.70;99.90;;;;;;4914099;28;20120;-83
2022/02/21 13:30:41;;;;;;;21.77;4.00;;;7.70;99.90;;;;;;4987515;28;20403;-82
2022/02/21 13:33:42;;;;;;;24.77;4.70;;;7.70;99.90;;;;;;4994418;28;20049;-83
2022/02/21 13:36:42;;;;;;;22.65;4.72;;;7.80;99.90;;;;;;4991429;28;20030;-83
2022/02/21 13:39:21;;;;;;;23.48;4.22;;;8.20;99.90;;;;;;4974242;28;20026;-82
2022/02/21 13:42:05;;;;;;;22.55;4.63;;;9.30;99.90;;;;;;4991364;28;20113;-82
2022/02/21 13:44:39;;;;;;;20.83;3.97;;;9.80;99.90;;;;;;4941171;28;20065;-83
2022/02/21 13:47:29;;;;;;;21.80;3.28;;;9.40;99.90;;;;;;4995334;28;20034;-83
2022/02/21 13:50:08;;;;;;;17.88;3.28;;;9.20;99.90;;;;;;4976919;28;20186;-82
2022/02/21 13:53:29;;;;;;;20.60;3.22;;;8.80;99.90;;;;;;4995340;28;20070;-82
2022/02/21 14:33:52;;;;;;;13.13;2.58;;;6.90;99.90;;;;;;4901009;29;20104;-84
2022/02/21 14:47:56;;;;;;;;;;;;;;;;;;;;;
2022/02/21 14:54:16;;;;;;;13.38;2.45;;;7.00;99.90;;;;;;4848084;29;20037;-83
2022/02/21 14:57:23;;;;;;;14.20;1.65;;;7.00;99.90;;;;;;4929568;29;20191;-82
2022/02/21 15:00:18;;;;;;;7.47;1.73;;;7.10;99.90;;;;;;4944946;28;20047;-82
2022/02/21 15:02:54;;;;;;;8.40;1.80;;;7.00;99.90;;;;;;4952957;29;20036;-81
2022/02/21 15:05:26;;;;;;;11.90;1.92;;;7.00;99.90;;;;;;4972974;28;20469;-81
2022/02/21 15:07:56;;;;;;;13.80;1.98;;;7.00;99.90;;;;;;4980679;28;20230;-82